sensor_id;sensor_type;location;lat;lon;timestamp;temperature;humidity
16736;DHT22;17990;49.548;9.730;2023-12-07T00:02:09;2.40;99.90
16736;DHT22;17990;49.548;9.730;2023-12-07T00:04:39;2.40;99.90
16736;DHT22;17990;49.548;9.730;2023-12-07T00:07:05;2.40;99.90
16736;DHT22;17990;49.548;9.730;2023-12-07T00:09:32;2.40;99.90
16736;DHT22;17990;49.548;9.730;2023-12-07T00:11:59;2.40;99.90
16736;DHT22;17990;49.548;9.730;2023-12-07T00:14:25;2.40;99.90
16736;DHT22;17990;49.548;9.730;2023-12-07T00:16:52;2.40;99.90
16736;DHT22;17990;49.548;9.730;2023-12-07T00:19:19;2.40;99.90
16736;DHT22;17990;49.548;9.730;2023-12-07T00:21:47;2.40;99.90
16736;DHT22;17990;49.548;9.730;2023-12-07T00:24:14;2.40;99.90
16736;DHT22;17990;49.548;9.730;2023-12-07T00:26:41;2.40;99.90
16736;DHT22;17990;49.548;9.730;2023-12-07T00:29:07;2.40;99.90
16736;DHT22;17990;49.548;9.730;2023-12-07T00:31:34;2.40;99.90
16736;DHT22;17990;49.548;9.730;2023-12-07T00:34:01;2.40;99.90
16736;DHT22;17990;49.548;9.730;2023-12-07T00:36:28;2.40;99.90
16736;DHT22;17990;49.548;9.730;2023-12-07T00:38:56;2.40;99.90
16736;DHT22;17990;49.548;9.730;2023-12-07T00:41:22;2.40;99.90
16736;DHT22;17990;49.548;9.730;2023-12-07T00:43:49;2.40;99.90
16736;DHT22;17990;49.548;9.730;2023-12-07T00:46:16;2.30;99.90
16736;DHT22;17990;49.548;9.730;2023-12-07T00:48:42;2.40;99.90
16736;DHT22;17990;49.548;9.730;2023-12-07T00:51:10;2.40;99.90
16736;DHT22;17990;49.548;9.730;2023-12-07T00:53:37;2.40;99.90
16736;DHT22;17990;49.548;9.730;2023-12-07T00:56:06;2.40;99.90
16736;DHT22;17990;49.548;9.730;2023-12-07T00:58:32;2.40;99.90
16736;DHT22;17990;49.548;9.730;2023-12-07T01:01:00;2.40;99.90
16736;DHT22;17990;49.548;9.730;2023-12-07T01:03:26;2.40;99.90
16736;DHT22;17990;49.548;9.730;2023-12-07T01:05:53;2.40;99.90
16736;DHT22;17990;49.548;9.730;2023-12-07T01:08:20;2.30;99.90
16736;DHT22;17990;49.548;9.730;2023-12-07T01:10:46;2.30;99.90
16736;DHT22;17990;49.548;9.730;2023-12-07T01:13:14;2.30;99.90
16736;DHT22;17990;49.548;9.730;2023-12-07T01:15:41;2.40;99.90
16736;DHT22;17990;49.548;9.730;2023-12-07T01:18:08;2.30;99.90
16736;DHT22;17990;49.548;9.730;2023-12-07T01:20:34;2.40;99.90
16736;DHT22;17990;49.548;9.730;2023-12-07T01:23:01;2.40;99.90
16736;DHT22;17990;49.548;9.730;2023-12-07T01:25:28;2.40;99.90
16736;DHT22;17990;49.548;9.730;2023-12-07T01:27:55;2.40;99.90
16736;DHT22;17990;49.548;9.730;2023-12-07T01:30:23;2.40;99.90
16736;DHT22;17990;49.548;9.730;2023-12-07T01:32:49;2.40;99.90
16736;DHT22;17990;49.548;9.730;2023-12-07T01:35:16;2.40;99.90
16736;DHT22;17990;49.548;9.730;2023-12-07T01:37:43;2.40;99.90
16736;DHT22;17990;49.548;9.730;2023-12-07T01:40:10;2.30;99.90
16736;DHT22;17990;49.548;9.730;2023-12-07T01:42:37;2.20;99.90
16736;DHT22;17990;49.548;9.730;2023-12-07T01:45:05;2.20;99.90
16736;DHT22;17990;49.548;9.730;2023-12-07T01:47:35;2.20;99.90
16736;DHT22;17990;49.548;9.730;2023-12-07T01:50:02;2.20;99.90
16736;DHT22;17990;49.548;9.730;2023-12-07T01:52:32;2.20;99.90
16736;DHT22;17990;49.548;9.730;2023-12-07T01:54:59;2.20;99.90
16736;DHT22;17990;49.548;9.730;2023-12-07T01:57:27;2.30;99.90
16736;DHT22;17990;49.548;9.730;2023-12-07T01:59:54;2.30;99.90
16736;DHT22;17990;49.548;9.730;2023-12-07T02:02:20;2.30;99.90
16736;DHT22;17990;49.548;9.730;2023-12-07T02:04:49;2.30;99.90
16736;DHT22;17990;49.548;9.730;2023-12-07T02:07:16;2.40;99.90
16736;DHT22;17990;49.548;9.730;2023-12-07T02:09:43;2.30;99.90
16736;DHT22;17990;49.548;9.730;2023-12-07T02:12:10;2.30;99.90
16736;DHT22;17990;49.548;9.730;2023-12-07T02:14:37;2.30;99.90
16736;DHT22;17990;49.548;9.730;2023-12-07T02:17:10;2.30;99.90
16736;DHT22;17990;49.548;9.730;2023-12-07T02:20:01;2.30;99.90
16736;DHT22;17990;49.548;9.730;2023-12-07T02:22:38;2.30;99.90
16736;DHT22;17990;49.548;9.730;2023-12-07T02:25:07;2.20;99.90
16736;DHT22;17990;49.548;9.730;2023-12-07T02:27:39;2.20;99.90
16736;DHT22;17990;49.548;9.730;2023-12-07T02:30:07;2.30;99.90
16736;DHT22;17990;49.548;9.730;2023-12-07T02:32:34;2.20;99.90
16736;DHT22;17990;49.548;9.730;2023-12-07T02:35:01;2.20;99.90
16736;DHT22;17990;49.548;9.730;2023-12-07T02:37:33;2.10;99.90
16736;DHT22;17990;49.548;9.730;2023-12-07T02:40:03;2.10;99.90
16736;DHT22;17990;49.548;9.730;2023-12-07T02:42:31;2.10;99.90
16736;DHT22;17990;49.548;9.730;2023-12-07T02:45:01;2.00;99.90
16736;DHT22;17990;49.548;9.730;2023-12-07T02:47:29;2.00;99.90
16736;DHT22;17990;49.548;9.730;2023-12-07T02:49:55;2.00;99.90
16736;DHT22;17990;49.548;9.730;2023-12-07T02:52:22;2.00;99.90
16736;DHT22;17990;49.548;9.730;2023-12-07T02:54:49;2.00;99.90
16736;DHT22;17990;49.548;9.730;2023-12-07T02:57:15;2.00;99.90
16736;DHT22;17990;49.548;9.730;2023-12-07T02:59:42;1.90;99.90
16736;DHT22;17990;49.548;9.730;2023-12-07T03:02:10;2.00;99.90
16736;DHT22;17990;49.548;9.730;2023-12-07T03:04:37;1.90;99.90
16736;DHT22;17990;49.548;9.730;2023-12-07T03:07:04;1.90;99.90
16736;DHT22;17990;49.548;9.730;2023-12-07T03:09:30;1.80;99.90
16736;DHT22;17990;49.548;9.730;2023-12-07T03:11:57;1.70;99.90
16736;DHT22;17990;49.548;9.730;2023-12-07T03:14:24;1.50;99.90
16736;DHT22;17990;49.548;9.730;2023-12-07T03:16:50;1.40;99.90
16736;DHT22;17990;49.548;9.730;2023-12-07T03:19:18;1.30;99.90
16736;DHT22;17990;49.548;9.730;2023-12-07T03:21:45;1.20;99.90
16736;DHT22;17990;49.548;9.730;2023-12-07T03:24:12;1.10;99.90
16736;DHT22;17990;49.548;9.730;2023-12-07T03:26:38;1.00;99.90
16736;DHT22;17990;49.548;9.730;2023-12-07T03:29:05;0.90;99.90
16736;DHT22;17990;49.548;9.730;2023-12-07T03:31:32;0.90;99.90
16736;DHT22;17990;49.548;9.730;2023-12-07T03:33:59;1.00;99.90
16736;DHT22;17990;49.548;9.730;2023-12-07T03:36:28;1.00;99.90
16736;DHT22;17990;49.548;9.730;2023-12-07T03:38:55;1.00;99.90
16736;DHT22;17990;49.548;9.730;2023-12-07T03:41:22;1.00;99.90
16736;DHT22;17990;49.548;9.730;2023-12-07T03:43:48;1.00;99.90
16736;DHT22;17990;49.548;9.730;2023-12-07T03:46:15;1.00;99.90
16736;DHT22;17990;49.548;9.730;2023-12-07T03:48:43;1.00;99.90
16736;DHT22;17990;49.548;9.730;2023-12-07T03:51:12;1.00;99.90
16736;DHT22;17990;49.548;9.730;2023-12-07T03:53:41;1.00;99.90
16736;DHT22;17990;49.548;9.730;2023-12-07T03:56:08;1.00;99.90
16736;DHT22;17990;49.548;9.730;2023-12-07T03:58:35;0.90;99.90
16736;DHT22;17990;49.548;9.730;2023-12-07T04:01:02;0.90;99.90
16736;DHT22;17990;49.548;9.730;2023-12-07T04:03:29;0.80;99.90
16736;DHT22;17990;49.548;9.730;2023-12-07T04:05:56;0.80;99.90
16736;DHT22;17990;49.548;9.730;2023-12-07T04:08:22;0.90;99.90
16736;DHT22;17990;49.548;9.730;2023-12-07T04:10:50;0.90;99.90
16736;DHT22;17990;49.548;9.730;2023-12-07T04:13:17;1.10;99.90
16736;DHT22;17990;49.548;9.730;2023-12-07T04:15:44;1.10;99.90
16736;DHT22;17990;49.548;9.730;2023-12-07T04:18:10;1.20;99.90
16736;DHT22;17990;49.548;9.730;2023-12-07T04:20:37;1.30;99.90
16736;DHT22;17990;49.548;9.730;2023-12-07T04:23:04;1.40;99.90
16736;DHT22;17990;49.548;9.730;2023-12-07T04:25:31;1.40;99.90
16736;DHT22;17990;49.548;9.730;2023-12-07T04:27:59;1.50;99.90
16736;DHT22;17990;49.548;9.730;2023-12-07T04:30:25;1.60;99.90
16736;DHT22;17990;49.548;9.730;2023-12-07T04:32:52;1.70;99.90
16736;DHT22;17990;49.548;9.730;2023-12-07T04:35:19;1.70;99.90
16736;DHT22;17990;49.548;9.730;2023-12-07T04:37:45;1.80;99.90
16736;DHT22;17990;49.548;9.730;2023-12-07T04:40:12;1.80;99.90
16736;DHT22;17990;49.548;9.730;2023-12-07T04:42:39;1.90;99.90
16736;DHT22;17990;49.548;9.730;2023-12-07T04:45:08;1.90;99.90
16736;DHT22;17990;49.548;9.730;2023-12-07T04:47:35;2.00;99.90
16736;DHT22;17990;49.548;9.730;2023-12-07T04:50:02;2.00;99.90
16736;DHT22;17990;49.548;9.730;2023-12-07T04:52:29;2.00;99.90
16736;DHT22;17990;49.548;9.730;2023-12-07T04:54:56;2.00;99.90
16736;DHT22;17990;49.548;9.730;2023-12-07T04:57:23;2.10;99.90
16736;DHT22;17990;49.548;9.730;2023-12-07T04:59:49;2.00;99.90
16736;DHT22;17990;49.548;9.730;2023-12-07T05:02:17;2.10;99.90
16736;DHT22;17990;49.548;9.730;2023-12-07T05:04:45;2.10;99.90
16736;DHT22;17990;49.548;9.730;2023-12-07T05:07:12;2.10;99.90
16736;DHT22;17990;49.548;9.730;2023-12-07T05:09:39;2.10;99.90
16736;DHT22;17990;49.548;9.730;2023-12-07T05:12:07;2.20;99.90
16736;DHT22;17990;49.548;9.730;2023-12-07T05:14:34;2.10;99.90
16736;DHT22;17990;49.548;9.730;2023-12-07T05:17:01;2.20;99.90
16736;DHT22;17990;49.548;9.730;2023-12-07T05:19:30;2.10;99.90
16736;DHT22;17990;49.548;9.730;2023-12-07T05:21:57;2.10;99.90
16736;DHT22;17990;49.548;9.730;2023-12-07T05:24:24;2.20;99.90
16736;DHT22;17990;49.548;9.730;2023-12-07T05:26:50;2.10;99.90
16736;DHT22;17990;49.548;9.730;2023-12-07T05:29:17;2.10;99.90
16736;DHT22;17990;49.548;9.730;2023-12-07T05:31:44;2.20;99.90
16736;DHT22;17990;49.548;9.730;2023-12-07T05:34:11;2.20;99.90
16736;DHT22;17990;49.548;9.730;2023-12-07T05:36:39;2.20;99.90
16736;DHT22;17990;49.548;9.730;2023-12-07T05:39:05;2.20;99.90
16736;DHT22;17990;49.548;9.730;2023-12-07T05:41:33;2.10;99.90
16736;DHT22;17990;49.548;9.730;2023-12-07T05:44:00;2.10;99.90
16736;DHT22;17990;49.548;9.730;2023-12-07T05:46:28;2.20;99.90
16736;DHT22;17990;49.548;9.730;2023-12-07T05:48:55;2.10;99.90
16736;DHT22;17990;49.548;9.730;2023-12-07T05:51:23;2.20;99.90
16736;DHT22;17990;49.548;9.730;2023-12-07T05:53:51;2.20;99.90
16736;DHT22;17990;49.548;9.730;2023-12-07T05:56:19;2.20;99.90
16736;DHT22;17990;49.548;9.730;2023-12-07T05:58:46;2.30;99.90
16736;DHT22;17990;49.548;9.730;2023-12-07T06:01:16;2.20;99.90
16736;DHT22;17990;49.548;9.730;2023-12-07T06:03:43;2.20;99.90
16736;DHT22;17990;49.548;9.730;2023-12-07T06:06:10;2.20;99.90
16736;DHT22;17990;49.548;9.730;2023-12-07T06:08:37;2.20;99.90
16736;DHT22;17990;49.548;9.730;2023-12-07T06:11:05;2.30;99.90
16736;DHT22;17990;49.548;9.730;2023-12-07T06:13:32;2.30;99.90
16736;DHT22;17990;49.548;9.730;2023-12-07T06:15:59;2.20;99.90
16736;DHT22;17990;49.548;9.730;2023-12-07T06:18:26;2.20;99.90
16736;DHT22;17990;49.548;9.730;2023-12-07T06:20:53;2.20;99.90
16736;DHT22;17990;49.548;9.730;2023-12-07T06:23:20;2.30;99.90
16736;DHT22;17990;49.548;9.730;2023-12-07T06:25:47;2.30;99.90
16736;DHT22;17990;49.548;9.730;2023-12-07T06:28:16;2.30;99.90
16736;DHT22;17990;49.548;9.730;2023-12-07T06:30:43;2.20;99.90
16736;DHT22;17990;49.548;9.730;2023-12-07T06:33:10;2.20;99.90
16736;DHT22;17990;49.548;9.730;2023-12-07T06:35:37;2.20;99.90
16736;DHT22;17990;49.548;9.730;2023-12-07T06:38:04;2.20;99.90
16736;DHT22;17990;49.548;9.730;2023-12-07T06:40:31;2.20;99.90
16736;DHT22;17990;49.548;9.730;2023-12-07T06:42:58;2.20;99.90
16736;DHT22;17990;49.548;9.730;2023-12-07T06:45:26;2.20;99.90
16736;DHT22;17990;49.548;9.730;2023-12-07T06:47:53;2.20;99.90
16736;DHT22;17990;49.548;9.730;2023-12-07T06:50:19;2.30;99.90
16736;DHT22;17990;49.548;9.730;2023-12-07T06:52:46;2.30;99.90
16736;DHT22;17990;49.548;9.730;2023-12-07T06:55:13;2.20;99.90
16736;DHT22;17990;49.548;9.730;2023-12-07T06:57:40;2.20;99.90
16736;DHT22;17990;49.548;9.730;2023-12-07T07:00:07;2.30;99.90
16736;DHT22;17990;49.548;9.730;2023-12-07T07:02:37;2.30;99.90
16736;DHT22;17990;49.548;9.730;2023-12-07T07:05:04;2.30;99.90
16736;DHT22;17990;49.548;9.730;2023-12-07T07:07:32;2.30;99.90
16736;DHT22;17990;49.548;9.730;2023-12-07T07:09:58;2.30;99.90
16736;DHT22;17990;49.548;9.730;2023-12-07T07:12:25;2.30;99.90
16736;DHT22;17990;49.548;9.730;2023-12-07T07:14:53;2.30;99.90
16736;DHT22;17990;49.548;9.730;2023-12-07T07:17:20;2.30;99.90
16736;DHT22;17990;49.548;9.730;2023-12-07T07:19:48;2.30;99.90
16736;DHT22;17990;49.548;9.730;2023-12-07T07:22:14;2.30;99.90
16736;DHT22;17990;49.548;9.730;2023-12-07T07:24:41;2.30;99.90
16736;DHT22;17990;49.548;9.730;2023-12-07T07:27:08;2.30;99.90
16736;DHT22;17990;49.548;9.730;2023-12-07T07:29:35;2.40;99.90
16736;DHT22;17990;49.548;9.730;2023-12-07T07:32:01;2.40;99.90
16736;DHT22;17990;49.548;9.730;2023-12-07T07:34:27;2.30;99.90
16736;DHT22;17990;49.548;9.730;2023-12-07T07:36:55;2.40;99.90
16736;DHT22;17990;49.548;9.730;2023-12-07T07:39:22;2.40;99.90
16736;DHT22;17990;49.548;9.730;2023-12-07T07:41:48;2.40;99.90
16736;DHT22;17990;49.548;9.730;2023-12-07T07:44:15;2.40;99.90
16736;DHT22;17990;49.548;9.730;2023-12-07T07:46:42;2.40;99.90
16736;DHT22;17990;49.548;9.730;2023-12-07T07:49:09;2.40;99.90
16736;DHT22;17990;49.548;9.730;2023-12-07T07:51:35;2.50;99.90
16736;DHT22;17990;49.548;9.730;2023-12-07T07:54:03;2.50;99.90
16736;DHT22;17990;49.548;9.730;2023-12-07T07:56:30;2.40;99.90
16736;DHT22;17990;49.548;9.730;2023-12-07T07:58:57;2.50;99.90
16736;DHT22;17990;49.548;9.730;2023-12-07T08:01:26;2.40;99.90
16736;DHT22;17990;49.548;9.730;2023-12-07T08:03:52;2.40;99.90
16736;DHT22;17990;49.548;9.730;2023-12-07T08:06:19;2.50;99.90
16736;DHT22;17990;49.548;9.730;2023-12-07T08:08:46;2.50;99.90
16736;DHT22;17990;49.548;9.730;2023-12-07T08:11:15;2.60;99.90
16736;DHT22;17990;49.548;9.730;2023-12-07T08:13:42;2.60;99.90
16736;DHT22;17990;49.548;9.730;2023-12-07T08:16:09;2.60;99.90
16736;DHT22;17990;49.548;9.730;2023-12-07T08:18:35;2.60;99.90
16736;DHT22;17990;49.548;9.730;2023-12-07T08:21:03;2.60;99.90
16736;DHT22;17990;49.548;9.730;2023-12-07T08:23:30;2.60;99.90
16736;DHT22;17990;49.548;9.730;2023-12-07T08:25:57;2.60;99.90
16736;DHT22;17990;49.548;9.730;2023-12-07T08:28:25;2.60;99.90
16736;DHT22;17990;49.548;9.730;2023-12-07T08:30:51;2.60;99.90
16736;DHT22;17990;49.548;9.730;2023-12-07T08:33:18;2.70;99.90
16736;DHT22;17990;49.548;9.730;2023-12-07T08:35:45;2.70;99.90
16736;DHT22;17990;49.548;9.730;2023-12-07T08:38:12;2.70;99.90
16736;DHT22;17990;49.548;9.730;2023-12-07T08:40:39;2.70;99.90
16736;DHT22;17990;49.548;9.730;2023-12-07T08:43:05;2.80;99.90
16736;DHT22;17990;49.548;9.730;2023-12-07T08:45:33;2.90;99.90
16736;DHT22;17990;49.548;9.730;2023-12-07T08:48:04;2.90;99.90
16736;DHT22;17990;49.548;9.730;2023-12-07T08:50:31;3.00;99.90
16736;DHT22;17990;49.548;9.730;2023-12-07T08:52:57;3.10;99.90
16736;DHT22;17990;49.548;9.730;2023-12-07T08:55:24;3.10;99.90
16736;DHT22;17990;49.548;9.730;2023-12-07T08:57:53;3.10;99.90
16736;DHT22;17990;49.548;9.730;2023-12-07T09:00:20;3.20;99.90
16736;DHT22;17990;49.548;9.730;2023-12-07T09:02:50;3.20;99.90
16736;DHT22;17990;49.548;9.730;2023-12-07T09:05:18;3.20;99.90
16736;DHT22;17990;49.548;9.730;2023-12-07T09:07:45;3.20;99.90
16736;DHT22;17990;49.548;9.730;2023-12-07T09:10:12;3.30;99.90
16736;DHT22;17990;49.548;9.730;2023-12-07T09:12:39;3.30;99.90
16736;DHT22;17990;49.548;9.730;2023-12-07T09:15:07;3.30;99.90
16736;DHT22;17990;49.548;9.730;2023-12-07T09:17:35;3.20;99.90
16736;DHT22;17990;49.548;9.730;2023-12-07T09:20:06;3.30;99.90
16736;DHT22;17990;49.548;9.730;2023-12-07T09:22:37;3.30;99.90
16736;DHT22;17990;49.548;9.730;2023-12-07T09:25:05;3.30;99.90
16736;DHT22;17990;49.548;9.730;2023-12-07T09:27:33;3.40;99.90
16736;DHT22;17990;49.548;9.730;2023-12-07T09:30:00;3.40;99.90
16736;DHT22;17990;49.548;9.730;2023-12-07T09:32:28;3.40;99.90
16736;DHT22;17990;49.548;9.730;2023-12-07T09:34:55;3.50;99.90
16736;DHT22;17990;49.548;9.730;2023-12-07T09:37:23;3.50;99.90
16736;DHT22;17990;49.548;9.730;2023-12-07T09:39:50;3.50;99.90
16736;DHT22;17990;49.548;9.730;2023-12-07T09:42:16;3.60;99.90
16736;DHT22;17990;49.548;9.730;2023-12-07T09:44:43;3.60;99.90
16736;DHT22;17990;49.548;9.730;2023-12-07T09:47:11;3.70;99.90
16736;DHT22;17990;49.548;9.730;2023-12-07T09:49:39;3.80;99.90
16736;DHT22;17990;49.548;9.730;2023-12-07T09:52:06;3.70;99.90
16736;DHT22;17990;49.548;9.730;2023-12-07T09:54:36;3.80;99.90
16736;DHT22;17990;49.548;9.730;2023-12-07T09:57:06;3.80;99.90
16736;DHT22;17990;49.548;9.730;2023-12-07T09:59:35;3.80;99.90
16736;DHT22;17990;49.548;9.730;2023-12-07T10:02:02;3.90;99.90
16736;DHT22;17990;49.548;9.730;2023-12-07T10:04:29;4.00;99.90
16736;DHT22;17990;49.548;9.730;2023-12-07T10:06:56;4.00;99.90
16736;DHT22;17990;49.548;9.730;2023-12-07T10:09:23;3.90;99.90
16736;DHT22;17990;49.548;9.730;2023-12-07T10:12:02;4.00;99.90
16736;DHT22;17990;49.548;9.730;2023-12-07T10:14:28;4.10;99.90
16736;DHT22;17990;49.548;9.730;2023-12-07T10:16:56;4.10;99.90
16736;DHT22;17990;49.548;9.730;2023-12-07T10:19:23;4.10;99.90
16736;DHT22;17990;49.548;9.730;2023-12-07T10:21:51;4.30;99.90
16736;DHT22;17990;49.548;9.730;2023-12-07T10:24:18;4.30;99.90
16736;DHT22;17990;49.548;9.730;2023-12-07T10:26:46;4.50;99.90
16736;DHT22;17990;49.548;9.730;2023-12-07T10:29:16;4.60;99.90
16736;DHT22;17990;49.548;9.730;2023-12-07T10:31:43;4.70;99.90
16736;DHT22;17990;49.548;9.730;2023-12-07T10:34:12;4.70;99.90
16736;DHT22;17990;49.548;9.730;2023-12-07T10:36:39;4.70;99.90
16736;DHT22;17990;49.548;9.730;2023-12-07T10:39:05;4.80;99.90
16736;DHT22;17990;49.548;9.730;2023-12-07T10:41:34;4.80;99.90
16736;DHT22;17990;49.548;9.730;2023-12-07T10:44:06;4.90;99.90
16736;DHT22;17990;49.548;9.730;2023-12-07T10:46:36;4.90;99.90
16736;DHT22;17990;49.548;9.730;2023-12-07T10:49:04;4.90;99.90
16736;DHT22;17990;49.548;9.730;2023-12-07T10:51:37;4.80;99.90
16736;DHT22;17990;49.548;9.730;2023-12-07T10:54:08;4.80;99.90
16736;DHT22;17990;49.548;9.730;2023-12-07T10:56:39;4.60;99.90
16736;DHT22;17990;49.548;9.730;2023-12-07T10:59:08;4.60;99.90
16736;DHT22;17990;49.548;9.730;2023-12-07T11:01:38;4.60;99.90
16736;DHT22;17990;49.548;9.730;2023-12-07T11:04:05;4.50;99.90
16736;DHT22;17990;49.548;9.730;2023-12-07T11:06:33;4.60;99.90
16736;DHT22;17990;49.548;9.730;2023-12-07T11:09:02;4.80;99.90
16736;DHT22;17990;49.548;9.730;2023-12-07T11:11:36;5.00;99.90
16736;DHT22;17990;49.548;9.730;2023-12-07T11:14:04;5.10;99.90
16736;DHT22;17990;49.548;9.730;2023-12-07T11:16:31;5.20;99.90
16736;DHT22;17990;49.548;9.730;2023-12-07T11:19:00;5.30;99.90
16736;DHT22;17990;49.548;9.730;2023-12-07T11:21:27;5.20;99.90
16736;DHT22;17990;49.548;9.730;2023-12-07T11:23:54;5.20;99.90
16736;DHT22;17990;49.548;9.730;2023-12-07T11:26:22;5.10;99.90
16736;DHT22;17990;49.548;9.730;2023-12-07T11:28:49;4.90;99.90
16736;DHT22;17990;49.548;9.730;2023-12-07T11:31:16;5.00;99.90
16736;DHT22;17990;49.548;9.730;2023-12-07T11:33:43;5.20;99.90
16736;DHT22;17990;49.548;9.730;2023-12-07T11:36:12;5.20;99.90
16736;DHT22;17990;49.548;9.730;2023-12-07T11:39:17;5.30;99.90
16736;DHT22;17990;49.548;9.730;2023-12-07T11:41:49;5.30;99.90
16736;DHT22;17990;49.548;9.730;2023-12-07T11:44:17;5.20;99.90
16736;DHT22;17990;49.548;9.730;2023-12-07T11:46:44;5.10;99.90
16736;DHT22;17990;49.548;9.730;2023-12-07T11:49:11;5.10;99.90
16736;DHT22;17990;49.548;9.730;2023-12-07T11:51:40;5.10;99.90
16736;DHT22;17990;49.548;9.730;2023-12-07T11:54:07;5.20;99.90
16736;DHT22;17990;49.548;9.730;2023-12-07T11:56:37;5.20;99.90
16736;DHT22;17990;49.548;9.730;2023-12-07T11:59:04;5.30;99.90
16736;DHT22;17990;49.548;9.730;2023-12-07T12:01:30;5.50;99.90
16736;DHT22;17990;49.548;9.730;2023-12-07T12:03:59;5.50;99.90
16736;DHT22;17990;49.548;9.730;2023-12-07T12:06:25;5.60;99.90
16736;DHT22;17990;49.548;9.730;2023-12-07T12:08:55;5.80;99.90
16736;DHT22;17990;49.548;9.730;2023-12-07T12:11:22;5.80;99.90
16736;DHT22;17990;49.548;9.730;2023-12-07T12:13:49;5.80;99.90
16736;DHT22;17990;49.548;9.730;2023-12-07T12:16:16;5.60;99.90
16736;DHT22;17990;49.548;9.730;2023-12-07T12:18:42;5.60;99.90
16736;DHT22;17990;49.548;9.730;2023-12-07T12:21:09;5.70;99.90
16736;DHT22;17990;49.548;9.730;2023-12-07T12:23:36;5.70;99.90
16736;DHT22;17990;49.548;9.730;2023-12-07T12:26:06;5.80;99.90
16736;DHT22;17990;49.548;9.730;2023-12-07T12:28:35;5.70;99.90
16736;DHT22;17990;49.548;9.730;2023-12-07T12:31:08;5.70;99.90
16736;DHT22;17990;49.548;9.730;2023-12-07T12:33:36;5.70;99.90
16736;DHT22;17990;49.548;9.730;2023-12-07T12:36:05;5.50;99.90
16736;DHT22;17990;49.548;9.730;2023-12-07T12:38:33;5.30;99.90
16736;DHT22;17990;49.548;9.730;2023-12-07T12:41:00;5.30;99.90
16736;DHT22;17990;49.548;9.730;2023-12-07T12:43:31;5.30;99.90
16736;DHT22;17990;49.548;9.730;2023-12-07T12:45:58;5.20;99.90
16736;DHT22;17990;49.548;9.730;2023-12-07T12:48:25;5.00;99.90
16736;DHT22;17990;49.548;9.730;2023-12-07T12:50:52;5.10;99.90
16736;DHT22;17990;49.548;9.730;2023-12-07T12:53:18;5.20;99.90
16736;DHT22;17990;49.548;9.730;2023-12-07T12:55:47;5.30;99.90
16736;DHT22;17990;49.548;9.730;2023-12-07T12:58:14;5.20;99.90
16736;DHT22;17990;49.548;9.730;2023-12-07T13:00:44;5.00;99.90
16736;DHT22;17990;49.548;9.730;2023-12-07T13:03:11;5.10;99.90
16736;DHT22;17990;49.548;9.730;2023-12-07T13:05:38;5.10;99.90
16736;DHT22;17990;49.548;9.730;2023-12-07T13:08:05;5.00;99.90
16736;DHT22;17990;49.548;9.730;2023-12-07T13:10:33;5.00;99.90
16736;DHT22;17990;49.548;9.730;2023-12-07T13:13:00;5.10;99.90
16736;DHT22;17990;49.548;9.730;2023-12-07T13:15:28;5.00;99.90
16736;DHT22;17990;49.548;9.730;2023-12-07T13:17:56;4.90;99.90
16736;DHT22;17990;49.548;9.730;2023-12-07T13:20:23;4.80;99.90
16736;DHT22;17990;49.548;9.730;2023-12-07T13:22:50;4.80;99.90
16736;DHT22;17990;49.548;9.730;2023-12-07T13:25:17;4.90;99.90
16736;DHT22;17990;49.548;9.730;2023-12-07T13:27:43;4.90;99.90
16736;DHT22;17990;49.548;9.730;2023-12-07T13:30:10;5.00;99.90
16736;DHT22;17990;49.548;9.730;2023-12-07T13:32:37;4.90;99.90
16736;DHT22;17990;49.548;9.730;2023-12-07T13:35:06;4.90;99.90
16736;DHT22;17990;49.548;9.730;2023-12-07T13:37:34;4.90;99.90
16736;DHT22;17990;49.548;9.730;2023-12-07T13:40:02;5.00;99.90
16736;DHT22;17990;49.548;9.730;2023-12-07T13:42:30;5.00;99.90
16736;DHT22;17990;49.548;9.730;2023-12-07T13:44:58;4.80;99.90
16736;DHT22;17990;49.548;9.730;2023-12-07T13:47:26;4.70;99.90
16736;DHT22;17990;49.548;9.730;2023-12-07T13:49:57;4.70;99.90
16736;DHT22;17990;49.548;9.730;2023-12-07T13:52:25;4.70;99.90
16736;DHT22;17990;49.548;9.730;2023-12-07T13:54:54;4.60;99.90
16736;DHT22;17990;49.548;9.730;2023-12-07T13:57:21;4.60;99.90
16736;DHT22;17990;49.548;9.730;2023-12-07T13:59:49;4.50;99.90
16736;DHT22;17990;49.548;9.730;2023-12-07T14:02:16;4.40;99.90
16736;DHT22;17990;49.548;9.730;2023-12-07T14:04:43;4.30;99.90
16736;DHT22;17990;49.548;9.730;2023-12-07T14:07:11;4.20;99.90
16736;DHT22;17990;49.548;9.730;2023-12-07T14:09:41;4.00;99.90
16736;DHT22;17990;49.548;9.730;2023-12-07T14:12:08;4.00;99.90
16736;DHT22;17990;49.548;9.730;2023-12-07T14:14:38;3.90;99.90
16736;DHT22;17990;49.548;9.730;2023-12-07T14:17:05;3.80;99.90
16736;DHT22;17990;49.548;9.730;2023-12-07T14:19:32;3.70;99.90
16736;DHT22;17990;49.548;9.730;2023-12-07T14:21:58;3.60;99.90
16736;DHT22;17990;49.548;9.730;2023-12-07T14:24:25;3.50;99.90
16736;DHT22;17990;49.548;9.730;2023-12-07T14:26:54;3.50;99.90
16736;DHT22;17990;49.548;9.730;2023-12-07T14:29:20;3.40;99.90
16736;DHT22;17990;49.548;9.730;2023-12-07T14:31:48;3.40;99.90
16736;DHT22;17990;49.548;9.730;2023-12-07T14:34:15;3.40;99.90
16736;DHT22;17990;49.548;9.730;2023-12-07T14:36:42;3.40;99.90
16736;DHT22;17990;49.548;9.730;2023-12-07T14:39:10;3.30;99.90
16736;DHT22;17990;49.548;9.730;2023-12-07T14:41:43;3.30;99.90
16736;DHT22;17990;49.548;9.730;2023-12-07T14:44:11;3.30;99.90
16736;DHT22;17990;49.548;9.730;2023-12-07T14:46:38;3.20;99.90
16736;DHT22;17990;49.548;9.730;2023-12-07T14:49:04;3.10;99.90
16736;DHT22;17990;49.548;9.730;2023-12-07T14:51:31;2.90;99.90
16736;DHT22;17990;49.548;9.730;2023-12-07T14:53:58;2.90;99.90
16736;DHT22;17990;49.548;9.730;2023-12-07T14:56:24;2.80;99.90
16736;DHT22;17990;49.548;9.730;2023-12-07T14:58:51;2.80;99.90
16736;DHT22;17990;49.548;9.730;2023-12-07T15:01:19;2.80;99.90
16736;DHT22;17990;49.548;9.730;2023-12-07T15:03:46;2.70;99.90
16736;DHT22;17990;49.548;9.730;2023-12-07T15:06:13;2.70;99.90
16736;DHT22;17990;49.548;9.730;2023-12-07T15:08:39;2.50;99.90
16736;DHT22;17990;49.548;9.730;2023-12-07T15:11:06;2.40;99.90
16736;DHT22;17990;49.548;9.730;2023-12-07T15:13:34;2.40;99.90
16736;DHT22;17990;49.548;9.730;2023-12-07T15:16:01;2.30;99.90
16736;DHT22;17990;49.548;9.730;2023-12-07T15:18:30;2.20;99.90
16736;DHT22;17990;49.548;9.730;2023-12-07T15:21:00;2.10;99.90
16736;DHT22;17990;49.548;9.730;2023-12-07T15:23:27;2.10;99.90
16736;DHT22;17990;49.548;9.730;2023-12-07T15:25:54;2.00;99.90
16736;DHT22;17990;49.548;9.730;2023-12-07T15:28:21;1.90;99.90
16736;DHT22;17990;49.548;9.730;2023-12-07T15:30:47;1.80;99.90
16736;DHT22;17990;49.548;9.730;2023-12-07T15:33:14;1.80;99.90
16736;DHT22;17990;49.548;9.730;2023-12-07T15:35:42;1.70;99.90
16736;DHT22;17990;49.548;9.730;2023-12-07T15:38:09;1.60;99.90
16736;DHT22;17990;49.548;9.730;2023-12-07T15:40:36;1.60;99.90
16736;DHT22;17990;49.548;9.730;2023-12-07T15:43:03;1.50;99.90
16736;DHT22;17990;49.548;9.730;2023-12-07T15:45:30;1.40;99.90
16736;DHT22;17990;49.548;9.730;2023-12-07T15:47:57;1.30;99.90